sensor_id;sensor_type;location;lat;lon;timestamp;P1;durP1;ratioP1;P2;durP2;ratioP2
15246;SDS011;7726;48.820;9.248;2023-03-14T00:01:35;1.10;;;1.00;;
15246;SDS011;7726;48.820;9.248;2023-03-14T00:04:03;1.73;;;1.03;;
15246;SDS011;7726;48.820;9.248;2023-03-14T00:06:30;0.80;;;0.73;;
15246;SDS011;7726;48.820;9.248;2023-03-14T00:08:57;0.60;;;0.50;;
15246;SDS011;7726;48.820;9.248;2023-03-14T00:11:26;0.70;;;0.40;;
15246;SDS011;7726;48.820;9.248;2023-03-14T00:13:53;0.67;;;0.67;;
15246;SDS011;7726;48.820;9.248;2023-03-14T00:16:20;0.50;;;0.50;;
15246;SDS011;7726;48.820;9.248;2023-03-14T00:18:47;0.93;;;0.80;;
15246;SDS011;7726;48.820;9.248;2023-03-14T00:21:14;2.47;;;0.90;;
15246;SDS011;7726;48.820;9.248;2023-03-14T00:23:42;0.60;;;0.60;;
15246;SDS011;7726;48.820;9.248;2023-03-14T00:26:09;0.70;;;0.60;;
15246;SDS011;7726;48.820;9.248;2023-03-14T00:28:38;0.90;;;0.90;;
15246;SDS011;7726;48.820;9.248;2023-03-14T00:31:06;0.60;;;0.60;;
15246;SDS011;7726;48.820;9.248;2023-03-14T00:33:34;1.43;;;0.97;;
15246;SDS011;7726;48.820;9.248;2023-03-14T00:36:02;2.00;;;0.80;;
15246;SDS011;7726;48.820;9.248;2023-03-14T00:38:30;0.60;;;0.60;;
15246;SDS011;7726;48.820;9.248;2023-03-14T00:40:57;1.00;;;1.00;;
15246;SDS011;7726;48.820;9.248;2023-03-14T00:43:24;0.70;;;0.53;;
15246;SDS011;7726;48.820;9.248;2023-03-14T00:45:53;1.13;;;0.80;;
15246;SDS011;7726;48.820;9.248;2023-03-14T00:48:20;0.93;;;0.80;;
15246;SDS011;7726;48.820;9.248;2023-03-14T00:50:47;1.27;;;0.90;;
15246;SDS011;7726;48.820;9.248;2023-03-14T00:53:14;1.03;;;0.50;;
15246;SDS011;7726;48.820;9.248;2023-03-14T00:55:41;0.67;;;0.60;;
15246;SDS011;7726;48.820;9.248;2023-03-14T00:58:09;0.70;;;0.60;;
15246;SDS011;7726;48.820;9.248;2023-03-14T01:00:36;0.67;;;0.67;;
15246;SDS011;7726;48.820;9.248;2023-03-14T01:03:05;0.40;;;0.40;;
15246;SDS011;7726;48.820;9.248;2023-03-14T01:05:32;1.63;;;0.90;;
15246;SDS011;7726;48.820;9.248;2023-03-14T01:07:59;1.33;;;0.60;;
15246;SDS011;7726;48.820;9.248;2023-03-14T01:10:27;0.40;;;0.40;;
15246;SDS011;7726;48.820;9.248;2023-03-14T01:12:54;1.03;;;0.60;;
15246;SDS011;7726;48.820;9.248;2023-03-14T01:15:21;0.93;;;0.43;;
15246;SDS011;7726;48.820;9.248;2023-03-14T01:17:48;0.20;;;0.20;;
15246;SDS011;7726;48.820;9.248;2023-03-14T01:20:17;0.37;;;0.33;;
15246;SDS011;7726;48.820;9.248;2023-03-14T01:22:44;0.60;;;0.60;;
15246;SDS011;7726;48.820;9.248;2023-03-14T01:25:12;0.60;;;0.30;;
15246;SDS011;7726;48.820;9.248;2023-03-14T01:27:39;0.87;;;0.53;;
15246;SDS011;7726;48.820;9.248;2023-03-14T01:30:07;1.00;;;0.40;;
15246;SDS011;7726;48.820;9.248;2023-03-14T01:32:35;1.17;;;0.40;;
15246;SDS011;7726;48.820;9.248;2023-03-14T01:35:02;0.40;;;0.40;;
15246;SDS011;7726;48.820;9.248;2023-03-14T01:37:31;0.40;;;0.40;;
15246;SDS011;7726;48.820;9.248;2023-03-14T01:39:58;1.30;;;0.40;;
15246;SDS011;7726;48.820;9.248;2023-03-14T01:42:25;0.50;;;0.40;;
15246;SDS011;7726;48.820;9.248;2023-03-14T01:44:53;0.47;;;0.47;;
15246;SDS011;7726;48.820;9.248;2023-03-14T01:47:20;0.50;;;0.50;;
15246;SDS011;7726;48.820;9.248;2023-03-14T01:49:48;0.77;;;0.50;;
15246;SDS011;7726;48.820;9.248;2023-03-14T01:52:17;1.60;;;0.40;;
15246;SDS011;7726;48.820;9.248;2023-03-14T01:54:47;0.73;;;0.50;;
15246;SDS011;7726;48.820;9.248;2023-03-14T01:57:16;0.37;;;0.37;;
15246;SDS011;7726;48.820;9.248;2023-03-14T01:59:45;0.30;;;0.30;;
15246;SDS011;7726;48.820;9.248;2023-03-14T02:02:13;0.33;;;0.33;;
15246;SDS011;7726;48.820;9.248;2023-03-14T02:04:40;0.40;;;0.30;;
15246;SDS011;7726;48.820;9.248;2023-03-14T02:07:09;0.50;;;0.40;;
15246;SDS011;7726;48.820;9.248;2023-03-14T02:09:37;0.93;;;0.40;;
15246;SDS011;7726;48.820;9.248;2023-03-14T02:12:06;1.73;;;0.30;;
15246;SDS011;7726;48.820;9.248;2023-03-14T02:14:34;0.63;;;0.50;;
15246;SDS011;7726;48.820;9.248;2023-03-14T02:17:02;0.70;;;0.40;;
15246;SDS011;7726;48.820;9.248;2023-03-14T02:19:33;0.40;;;0.40;;
15246;SDS011;7726;48.820;9.248;2023-03-14T02:22:05;1.20;;;0.40;;
15246;SDS011;7726;48.820;9.248;2023-03-14T02:24:34;0.30;;;0.30;;
15246;SDS011;7726;48.820;9.248;2023-03-14T02:27:10;0.30;;;0.30;;
15246;SDS011;7726;48.820;9.248;2023-03-14T02:29:39;0.20;;;0.20;;
15246;SDS011;7726;48.820;9.248;2023-03-14T02:32:07;0.33;;;0.33;;
15246;SDS011;7726;48.820;9.248;2023-03-14T02:34:34;0.50;;;0.50;;
15246;SDS011;7726;48.820;9.248;2023-03-14T02:37:02;1.23;;;0.47;;
15246;SDS011;7726;48.820;9.248;2023-03-14T02:39:32;0.30;;;0.30;;
15246;SDS011;7726;48.820;9.248;2023-03-14T02:42:01;1.50;;;0.50;;
15246;SDS011;7726;48.820;9.248;2023-03-14T02:44:30;0.23;;;0.23;;
15246;SDS011;7726;48.820;9.248;2023-03-14T02:46:57;0.73;;;0.40;;
15246;SDS011;7726;48.820;9.248;2023-03-14T02:49:24;1.20;;;0.37;;
15246;SDS011;7726;48.820;9.248;2023-03-14T02:51:52;0.37;;;0.30;;
15246;SDS011;7726;48.820;9.248;2023-03-14T02:54:19;0.33;;;0.33;;
15246;SDS011;7726;48.820;9.248;2023-03-14T02:56:47;0.50;;;0.50;;
15246;SDS011;7726;48.820;9.248;2023-03-14T02:59:14;1.03;;;0.40;;
15246;SDS011;7726;48.820;9.248;2023-03-14T03:01:42;0.33;;;0.33;;
15246;SDS011;7726;48.820;9.248;2023-03-14T03:04:09;0.43;;;0.43;;
15246;SDS011;7726;48.820;9.248;2023-03-14T03:06:37;0.30;;;0.30;;
15246;SDS011;7726;48.820;9.248;2023-03-14T03:09:04;0.73;;;0.27;;
15246;SDS011;7726;48.820;9.248;2023-03-14T03:11:31;0.63;;;0.50;;
15246;SDS011;7726;48.820;9.248;2023-03-14T03:13:58;0.40;;;0.30;;
15246;SDS011;7726;48.820;9.248;2023-03-14T03:16:25;0.37;;;0.30;;
15246;SDS011;7726;48.820;9.248;2023-03-14T03:18:53;0.43;;;0.40;;
15246;SDS011;7726;48.820;9.248;2023-03-14T03:21:20;1.37;;;0.37;;
15246;SDS011;7726;48.820;9.248;2023-03-14T03:23:48;1.73;;;0.50;;
15246;SDS011;7726;48.820;9.248;2023-03-14T03:26:16;0.40;;;0.30;;
15246;SDS011;7726;48.820;9.248;2023-03-14T03:28:43;0.30;;;0.30;;
15246;SDS011;7726;48.820;9.248;2023-03-14T03:31:10;0.97;;;0.30;;
15246;SDS011;7726;48.820;9.248;2023-03-14T03:33:37;2.40;;;0.50;;
15246;SDS011;7726;48.820;9.248;2023-03-14T03:36:06;0.40;;;0.40;;
15246;SDS011;7726;48.820;9.248;2023-03-14T03:38:34;0.83;;;0.60;;
15246;SDS011;7726;48.820;9.248;2023-03-14T03:41:02;0.70;;;0.40;;
15246;SDS011;7726;48.820;9.248;2023-03-14T03:43:29;1.00;;;0.50;;
15246;SDS011;7726;48.820;9.248;2023-03-14T03:45:56;0.33;;;0.33;;
15246;SDS011;7726;48.820;9.248;2023-03-14T03:48:23;1.00;;;0.40;;
15246;SDS011;7726;48.820;9.248;2023-03-14T03:50:50;0.90;;;0.50;;
15246;SDS011;7726;48.820;9.248;2023-03-14T03:53:19;0.87;;;0.50;;
15246;SDS011;7726;48.820;9.248;2023-03-14T03:55:46;1.37;;;0.60;;
15246;SDS011;7726;48.820;9.248;2023-03-14T03:58:13;2.10;;;0.60;;
15246;SDS011;7726;48.820;9.248;2023-03-14T04:00:40;0.83;;;0.50;;
15246;SDS011;7726;48.820;9.248;2023-03-14T04:03:08;1.30;;;0.53;;
15246;SDS011;7726;48.820;9.248;2023-03-14T04:05:35;3.47;;;0.70;;
15246;SDS011;7726;48.820;9.248;2023-03-14T04:08:02;2.00;;;0.60;;
15246;SDS011;7726;48.820;9.248;2023-03-14T04:10:33;1.87;;;0.60;;
15246;SDS011;7726;48.820;9.248;2023-03-14T04:13:00;2.83;;;0.70;;
15246;SDS011;7726;48.820;9.248;2023-03-14T04:15:27;2.17;;;0.50;;
15246;SDS011;7726;48.820;9.248;2023-03-14T04:17:56;1.07;;;0.60;;
15246;SDS011;7726;48.820;9.248;2023-03-14T04:20:23;1.37;;;0.63;;
15246;SDS011;7726;48.820;9.248;2023-03-14T04:22:50;2.23;;;0.57;;
15246;SDS011;7726;48.820;9.248;2023-03-14T04:25:18;0.97;;;0.60;;
15246;SDS011;7726;48.820;9.248;2023-03-14T04:27:46;3.10;;;0.80;;
15246;SDS011;7726;48.820;9.248;2023-03-14T04:30:13;3.13;;;0.83;;
15246;SDS011;7726;48.820;9.248;2023-03-14T04:32:40;1.23;;;0.60;;
15246;SDS011;7726;48.820;9.248;2023-03-14T04:35:08;1.93;;;0.70;;
15246;SDS011;7726;48.820;9.248;2023-03-14T04:37:35;1.67;;;0.70;;
15246;SDS011;7726;48.820;9.248;2023-03-14T04:40:02;0.90;;;0.60;;
15246;SDS011;7726;48.820;9.248;2023-03-14T04:42:31;2.30;;;0.90;;
15246;SDS011;7726;48.820;9.248;2023-03-14T04:45:00;3.23;;;0.77;;
15246;SDS011;7726;48.820;9.248;2023-03-14T04:47:27;1.70;;;0.80;;
15246;SDS011;7726;48.820;9.248;2023-03-14T04:49:54;2.97;;;1.00;;
15246;SDS011;7726;48.820;9.248;2023-03-14T04:52:21;2.73;;;0.97;;
15246;SDS011;7726;48.820;9.248;2023-03-14T04:54:48;3.30;;;0.90;;
15246;SDS011;7726;48.820;9.248;2023-03-14T04:57:15;2.70;;;1.00;;
15246;SDS011;7726;48.820;9.248;2023-03-14T04:59:42;2.57;;;0.80;;
15246;SDS011;7726;48.820;9.248;2023-03-14T05:02:11;4.37;;;0.80;;
15246;SDS011;7726;48.820;9.248;2023-03-14T05:04:38;1.97;;;0.80;;
15246;SDS011;7726;48.820;9.248;2023-03-14T05:07:05;2.57;;;1.00;;
15246;SDS011;7726;48.820;9.248;2023-03-14T05:09:32;4.27;;;1.10;;
15246;SDS011;7726;48.820;9.248;2023-03-14T05:11:59;4.03;;;1.20;;
15246;SDS011;7726;48.820;9.248;2023-03-14T05:14:26;2.23;;;0.90;;
15246;SDS011;7726;48.820;9.248;2023-03-14T05:16:53;2.20;;;1.10;;
15246;SDS011;7726;48.820;9.248;2023-03-14T05:19:22;1.97;;;0.83;;
15246;SDS011;7726;48.820;9.248;2023-03-14T05:21:49;2.07;;;0.90;;
15246;SDS011;7726;48.820;9.248;2023-03-14T05:24:16;3.03;;;1.00;;
15246;SDS011;7726;48.820;9.248;2023-03-14T05:26:43;4.10;;;1.27;;
15246;SDS011;7726;48.820;9.248;2023-03-14T05:29:10;2.10;;;0.73;;
15246;SDS011;7726;48.820;9.248;2023-03-14T05:31:37;1.77;;;0.90;;
15246;SDS011;7726;48.820;9.248;2023-03-14T05:34:04;2.03;;;1.03;;
15246;SDS011;7726;48.820;9.248;2023-03-14T05:36:33;1.60;;;0.90;;
15246;SDS011;7726;48.820;9.248;2023-03-14T05:39:00;2.60;;;0.53;;
15246;SDS011;7726;48.820;9.248;2023-03-14T05:41:27;1.77;;;1.00;;
15246;SDS011;7726;48.820;9.248;2023-03-14T05:43:54;1.83;;;0.90;;
15246;SDS011;7726;48.820;9.248;2023-03-14T05:46:21;1.80;;;0.70;;
15246;SDS011;7726;48.820;9.248;2023-03-14T05:48:48;3.70;;;1.00;;
15246;SDS011;7726;48.820;9.248;2023-03-14T05:51:15;1.93;;;0.80;;
15246;SDS011;7726;48.820;9.248;2023-03-14T05:53:44;1.23;;;0.90;;
15246;SDS011;7726;48.820;9.248;2023-03-14T05:56:11;1.67;;;0.63;;
15246;SDS011;7726;48.820;9.248;2023-03-14T05:58:38;4.33;;;1.10;;
15246;SDS011;7726;48.820;9.248;2023-03-14T06:01:05;3.90;;;1.00;;
15246;SDS011;7726;48.820;9.248;2023-03-14T06:03:32;6.03;;;1.03;;
15246;SDS011;7726;48.820;9.248;2023-03-14T06:06:00;2.80;;;0.83;;
15246;SDS011;7726;48.820;9.248;2023-03-14T06:08:27;1.90;;;0.80;;
15246;SDS011;7726;48.820;9.248;2023-03-14T06:10:56;4.00;;;0.90;;
15246;SDS011;7726;48.820;9.248;2023-03-14T06:13:23;5.03;;;1.30;;
15246;SDS011;7726;48.820;9.248;2023-03-14T06:15:50;4.97;;;1.17;;
15246;SDS011;7726;48.820;9.248;2023-03-14T06:18:17;1.67;;;0.77;;
15246;SDS011;7726;48.820;9.248;2023-03-14T06:20:44;2.90;;;1.07;;
15246;SDS011;7726;48.820;9.248;2023-03-14T06:23:11;2.97;;;1.20;;
15246;SDS011;7726;48.820;9.248;2023-03-14T06:25:39;2.07;;;0.90;;
15246;SDS011;7726;48.820;9.248;2023-03-14T06:28:07;1.47;;;0.90;;
15246;SDS011;7726;48.820;9.248;2023-03-14T06:30:34;3.77;;;0.90;;
15246;SDS011;7726;48.820;9.248;2023-03-14T06:33:01;1.80;;;1.30;;
15246;SDS011;7726;48.820;9.248;2023-03-14T06:35:28;2.27;;;0.73;;
15246;SDS011;7726;48.820;9.248;2023-03-14T06:37:55;1.83;;;1.07;;
15246;SDS011;7726;48.820;9.248;2023-03-14T06:40:22;2.20;;;1.10;;
15246;SDS011;7726;48.820;9.248;2023-03-14T06:42:49;3.03;;;1.10;;
15246;SDS011;7726;48.820;9.248;2023-03-14T06:45:18;1.40;;;0.83;;
15246;SDS011;7726;48.820;9.248;2023-03-14T06:47:45;0.83;;;0.80;;
15246;SDS011;7726;48.820;9.248;2023-03-14T06:50:12;3.77;;;0.97;;
15246;SDS011;7726;48.820;9.248;2023-03-14T06:52:39;1.27;;;0.70;;
15246;SDS011;7726;48.820;9.248;2023-03-14T06:55:11;0.80;;;0.70;;
15246;SDS011;7726;48.820;9.248;2023-03-14T06:57:38;2.33;;;0.80;;
15246;SDS011;7726;48.820;9.248;2023-03-14T07:00:06;0.73;;;0.70;;
15246;SDS011;7726;48.820;9.248;2023-03-14T07:02:34;0.60;;;0.60;;
15246;SDS011;7726;48.820;9.248;2023-03-14T07:05:01;1.20;;;0.60;;
15246;SDS011;7726;48.820;9.248;2023-03-14T07:07:28;1.73;;;0.80;;
15246;SDS011;7726;48.820;9.248;2023-03-14T07:09:56;2.00;;;0.57;;
15246;SDS011;7726;48.820;9.248;2023-03-14T07:12:23;0.80;;;0.60;;
15246;SDS011;7726;48.820;9.248;2023-03-14T07:14:50;1.97;;;0.70;;
15246;SDS011;7726;48.820;9.248;2023-03-14T07:17:17;2.50;;;0.60;;
15246;SDS011;7726;48.820;9.248;2023-03-14T07:19:45;1.60;;;0.80;;
15246;SDS011;7726;48.820;9.248;2023-03-14T07:22:12;0.83;;;0.40;;
15246;SDS011;7726;48.820;9.248;2023-03-14T07:24:39;1.93;;;0.77;;
15246;SDS011;7726;48.820;9.248;2023-03-14T07:27:06;1.50;;;0.50;;
15246;SDS011;7726;48.820;9.248;2023-03-14T07:29:33;0.70;;;0.70;;
15246;SDS011;7726;48.820;9.248;2023-03-14T07:32:01;1.80;;;0.60;;
15246;SDS011;7726;48.820;9.248;2023-03-14T07:34:31;1.13;;;0.57;;
15246;SDS011;7726;48.820;9.248;2023-03-14T07:36:59;4.37;;;1.00;;
15246;SDS011;7726;48.820;9.248;2023-03-14T07:39:26;1.30;;;0.50;;
15246;SDS011;7726;48.820;9.248;2023-03-14T07:41:53;3.37;;;0.90;;
15246;SDS011;7726;48.820;9.248;2023-03-14T07:44:20;0.90;;;0.67;;
15246;SDS011;7726;48.820;9.248;2023-03-14T07:46:47;1.40;;;0.50;;
15246;SDS011;7726;48.820;9.248;2023-03-14T07:49:14;1.03;;;0.73;;
15246;SDS011;7726;48.820;9.248;2023-03-14T07:51:42;1.13;;;0.60;;
15246;SDS011;7726;48.820;9.248;2023-03-14T07:54:10;0.63;;;0.50;;
15246;SDS011;7726;48.820;9.248;2023-03-14T07:56:37;0.33;;;0.30;;
15246;SDS011;7726;48.820;9.248;2023-03-14T07:59:04;0.63;;;0.40;;
15246;SDS011;7726;48.820;9.248;2023-03-14T08:01:32;1.10;;;0.50;;
15246;SDS011;7726;48.820;9.248;2023-03-14T08:03:59;0.50;;;0.50;;
15246;SDS011;7726;48.820;9.248;2023-03-14T08:06:26;0.50;;;0.50;;
15246;SDS011;7726;48.820;9.248;2023-03-14T08:08:53;0.40;;;0.40;;
15246;SDS011;7726;48.820;9.248;2023-03-14T08:11:22;1.27;;;0.52;;
15246;SDS011;7726;48.820;9.248;2023-03-14T08:13:49;1.75;;;0.55;;
15246;SDS011;7726;48.820;9.248;2023-03-14T08:16:16;0.20;;;0.20;;
15246;SDS011;7726;48.820;9.248;2023-03-14T08:18:43;1.73;;;0.60;;
15246;SDS011;7726;48.820;9.248;2023-03-14T08:21:10;1.83;;;0.47;;
15246;SDS011;7726;48.820;9.248;2023-03-14T08:23:38;0.47;;;0.40;;
15246;SDS011;7726;48.820;9.248;2023-03-14T08:26:05;1.27;;;0.50;;
15246;SDS011;7726;48.820;9.248;2023-03-14T08:28:34;1.42;;;0.70;;
15246;SDS011;7726;48.820;9.248;2023-03-14T08:31:01;2.08;;;0.40;;
15246;SDS011;7726;48.820;9.248;2023-03-14T08:33:28;0.93;;;0.60;;
15246;SDS011;7726;48.820;9.248;2023-03-14T08:35:56;0.60;;;0.50;;
15246;SDS011;7726;48.820;9.248;2023-03-14T08:38:23;0.77;;;0.40;;
15246;SDS011;7726;48.820;9.248;2023-03-14T08:40:54;1.38;;;0.45;;
15246;SDS011;7726;48.820;9.248;2023-03-14T08:43:22;1.02;;;0.50;;
15246;SDS011;7726;48.820;9.248;2023-03-14T08:45:51;1.10;;;0.70;;
15246;SDS011;7726;48.820;9.248;2023-03-14T08:48:18;1.33;;;0.50;;
15246;SDS011;7726;48.820;9.248;2023-03-14T08:50:45;1.80;;;0.43;;
15246;SDS011;7726;48.820;9.248;2023-03-14T08:53:12;1.08;;;0.40;;
15246;SDS011;7726;48.820;9.248;2023-03-14T08:55:39;2.85;;;0.50;;
15246;SDS011;7726;48.820;9.248;2023-03-14T08:58:06;0.45;;;0.20;;
15246;SDS011;7726;48.820;9.248;2023-03-14T09:00:33;0.57;;;0.50;;
15246;SDS011;7726;48.820;9.248;2023-03-14T09:03:02;0.30;;;0.25;;
15246;SDS011;7726;48.820;9.248;2023-03-14T09:05:32;0.30;;;0.20;;
15246;SDS011;7726;48.820;9.248;2023-03-14T09:07:59;0.93;;;0.30;;
15246;SDS011;7726;48.820;9.248;2023-03-14T09:10:26;1.83;;;0.60;;
15246;SDS011;7726;48.820;9.248;2023-03-14T09:12:53;1.73;;;0.50;;
15246;SDS011;7726;48.820;9.248;2023-03-14T09:15:21;0.52;;;0.30;;
15246;SDS011;7726;48.820;9.248;2023-03-14T09:17:49;1.65;;;0.30;;
15246;SDS011;7726;48.820;9.248;2023-03-14T09:20:17;1.85;;;0.40;;
15246;SDS011;7726;48.820;9.248;2023-03-14T09:22:44;1.20;;;0.60;;
15246;SDS011;7726;48.820;9.248;2023-03-14T09:25:11;0.85;;;0.30;;
15246;SDS011;7726;48.820;9.248;2023-03-14T09:27:38;0.32;;;0.28;;
15246;SDS011;7726;48.820;9.248;2023-03-14T09:30:06;0.63;;;0.30;;
15246;SDS011;7726;48.820;9.248;2023-03-14T09:32:34;1.30;;;0.30;;
15246;SDS011;7726;48.820;9.248;2023-03-14T09:35:01;0.38;;;0.28;;
15246;SDS011;7726;48.820;9.248;2023-03-14T09:37:29;1.70;;;0.40;;
15246;SDS011;7726;48.820;9.248;2023-03-14T09:39:56;0.28;;;0.20;;
15246;SDS011;7726;48.820;9.248;2023-03-14T09:42:25;0.60;;;0.20;;
15246;SDS011;7726;48.820;9.248;2023-03-14T09:44:53;1.27;;;0.20;;
15246;SDS011;7726;48.820;9.248;2023-03-14T09:47:21;0.35;;;0.30;;
15246;SDS011;7726;48.820;9.248;2023-03-14T09:49:49;0.35;;;0.30;;
15246;SDS011;7726;48.820;9.248;2023-03-14T09:52:17;0.60;;;0.32;;
15246;SDS011;7726;48.820;9.248;2023-03-14T09:54:47;0.22;;;0.20;;
15246;SDS011;7726;48.820;9.248;2023-03-14T09:57:16;0.32;;;0.30;;
15246;SDS011;7726;48.820;9.248;2023-03-14T09:59:44;1.30;;;0.28;;
15246;SDS011;7726;48.820;9.248;2023-03-14T10:02:14;0.70;;;0.30;;
15246;SDS011;7726;48.820;9.248;2023-03-14T10:04:42;1.00;;;0.20;;
15246;SDS011;7726;48.820;9.248;2023-03-14T10:07:11;0.50;;;0.40;;
15246;SDS011;7726;48.820;9.248;2023-03-14T10:09:40;0.22;;;0.22;;
15246;SDS011;7726;48.820;9.248;2023-03-14T10:12:08;1.60;;;0.38;;
15246;SDS011;7726;48.820;9.248;2023-03-14T10:14:36;0.52;;;0.40;;
15246;SDS011;7726;48.820;9.248;2023-03-14T10:17:07;0.40;;;0.40;;
15246;SDS011;7726;48.820;9.248;2023-03-14T10:19:34;0.20;;;0.20;;
15246;SDS011;7726;48.820;9.248;2023-03-14T10:22:02;0.40;;;0.40;;
15246;SDS011;7726;48.820;9.248;2023-03-14T10:24:30;0.30;;;0.30;;
15246;SDS011;7726;48.820;9.248;2023-03-14T10:26:59;0.55;;;0.35;;
15246;SDS011;7726;48.820;9.248;2023-03-14T10:29:28;0.30;;;0.30;;
15246;SDS011;7726;48.820;9.248;2023-03-14T10:31:58;0.47;;;0.47;;
15246;SDS011;7726;48.820;9.248;2023-03-14T10:34:26;0.30;;;0.30;;
15246;SDS011;7726;48.820;9.248;2023-03-14T10:36:55;0.20;;;0.20;;
15246;SDS011;7726;48.820;9.248;2023-03-14T10:39:30;0.20;;;0.20;;
15246;SDS011;7726;48.820;9.248;2023-03-14T10:42:03;0.20;;;0.20;;
15246;SDS011;7726;48.820;9.248;2023-03-14T10:44:32;0.38;;;0.20;;
15246;SDS011;7726;48.820;9.248;2023-03-14T10:47:01;0.25;;;0.20;;
15246;SDS011;7726;48.820;9.248;2023-03-14T10:49:30;0.32;;;0.32;;
15246;SDS011;7726;48.820;9.248;2023-03-14T10:52:02;0.30;;;0.30;;
15246;SDS011;7726;48.820;9.248;2023-03-14T10:54:39;0.22;;;0.22;;
15246;SDS011;7726;48.820;9.248;2023-03-14T10:57:10;0.22;;;0.22;;
15246;SDS011;7726;48.820;9.248;2023-03-14T10:59:40;0.43;;;0.25;;
15246;SDS011;7726;48.820;9.248;2023-03-14T11:02:13;1.75;;;0.22;;
15246;SDS011;7726;48.820;9.248;2023-03-14T11:04:52;0.22;;;0.22;;
15246;SDS011;7726;48.820;9.248;2023-03-14T11:07:21;0.38;;;0.30;;
15246;SDS011;7726;48.820;9.248;2023-03-14T11:09:50;1.35;;;0.45;;
15246;SDS011;7726;48.820;9.248;2023-03-14T11:12:26;0.25;;;0.25;;
15246;SDS011;7726;48.820;9.248;2023-03-14T11:14:59;0.60;;;0.38;;
15246;SDS011;7726;48.820;9.248;2023-03-14T11:17:30;0.50;;;0.43;;
15246;SDS011;7726;48.820;9.248;2023-03-14T11:20:09;0.20;;;0.20;;
15246;SDS011;7726;48.820;9.248;2023-03-14T11:22:43;0.20;;;0.20;;
15246;SDS011;7726;48.820;9.248;2023-03-14T11:25:15;0.55;;;0.20;;
15246;SDS011;7726;48.820;9.248;2023-03-14T11:27:46;0.95;;;0.32;;
15246;SDS011;7726;48.820;9.248;2023-03-14T11:30:18;0.20;;;0.20;;
15246;SDS011;7726;48.820;9.248;2023-03-14T11:32:46;0.20;;;0.20;;
15246;SDS011;7726;48.820;9.248;2023-03-14T11:35:16;0.70;;;0.30;;
15246;SDS011;7726;48.820;9.248;2023-03-14T11:37:46;0.60;;;0.30;;
15246;SDS011;7726;48.820;9.248;2023-03-14T11:40:14;0.47;;;0.30;;
15246;SDS011;7726;48.820;9.248;2023-03-14T11:42:44;0.47;;;0.28;;
15246;SDS011;7726;48.820;9.248;2023-03-14T11:45:14;0.63;;;0.40;;
15246;SDS011;7726;48.820;9.248;2023-03-14T11:47:45;0.20;;;0.20;;
15246;SDS011;7726;48.820;9.248;2023-03-14T11:50:14;0.10;;;0.10;;
15246;SDS011;7726;48.820;9.248;2023-03-14T11:52:44;0.30;;;0.30;;
15246;SDS011;7726;48.820;9.248;2023-03-14T11:55:16;0.35;;;0.35;;
15246;SDS011;7726;48.820;9.248;2023-03-14T11:57:44;0.35;;;0.35;;
15246;SDS011;7726;48.820;9.248;2023-03-14T12:00:13;0.80;;;0.50;;
15246;SDS011;7726;48.820;9.248;2023-03-14T12:02:45;0.52;;;0.25;;
15246;SDS011;7726;48.820;9.248;2023-03-14T12:08:05;0.22;;;0.22;;
15246;SDS011;7726;48.820;9.248;2023-03-14T12:10:37;0.40;;;0.40;;
15246;SDS011;7726;48.820;9.248;2023-03-14T12:13:06;0.20;;;0.20;;
15246;SDS011;7726;48.820;9.248;2023-03-14T12:15:35;0.35;;;0.20;;
15246;SDS011;7726;48.820;9.248;2023-03-14T12:18:12;0.32;;;0.30;;
15246;SDS011;7726;48.820;9.248;2023-03-14T12:20:49;0.30;;;0.30;;
15246;SDS011;7726;48.820;9.248;2023-03-14T12:23:17;1.13;;;0.40;;
15246;SDS011;7726;48.820;9.248;2023-03-14T12:25:45;0.20;;;0.20;;
15246;SDS011;7726;48.820;9.248;2023-03-14T12:28:19;0.28;;;0.28;;
15246;SDS011;7726;48.820;9.248;2023-03-14T12:30:46;0.40;;;0.40;;
15246;SDS011;7726;48.820;9.248;2023-03-14T12:36:12;0.20;;;0.20;;
15246;SDS011;7726;48.820;9.248;2023-03-14T12:38:59;1.00;;;0.40;;
15246;SDS011;7726;48.820;9.248;2023-03-14T12:41:28;0.45;;;0.45;;
15246;SDS011;7726;48.820;9.248;2023-03-14T12:43:56;0.98;;;0.30;;
15246;SDS011;7726;48.820;9.248;2023-03-14T12:46:24;0.32;;;0.32;;
15246;SDS011;7726;48.820;9.248;2023-03-14T12:48:55;1.67;;;0.63;;
15246;SDS011;7726;48.820;9.248;2023-03-14T12:51:29;0.63;;;0.40;;
15246;SDS011;7726;48.820;9.248;2023-03-14T12:54:16;1.45;;;0.52;;
15246;SDS011;7726;48.820;9.248;2023-03-14T12:56:51;0.65;;;0.65;;
15246;SDS011;7726;48.820;9.248;2023-03-14T12:59:29;2.67;;;0.50;;
15246;SDS011;7726;48.820;9.248;2023-03-14T13:01:59;0.60;;;0.40;;
15246;SDS011;7726;48.820;9.248;2023-03-14T13:04:28;2.40;;;0.60;;
15246;SDS011;7726;48.820;9.248;2023-03-14T13:06:57;0.65;;;0.55;;
15246;SDS011;7726;48.820;9.248;2023-03-14T13:12:17;0.50;;;0.50;;
15246;SDS011;7726;48.820;9.248;2023-03-14T13:14:45;0.93;;;0.50;;
15246;SDS011;7726;48.820;9.248;2023-03-14T13:17:14;1.00;;;0.40;;
15246;SDS011;7726;48.820;9.248;2023-03-14T13:19:41;0.75;;;0.70;;
15246;SDS011;7726;48.820;9.248;2023-03-14T13:22:15;0.60;;;0.60;;
15246;SDS011;7726;48.820;9.248;2023-03-14T13:24:44;0.22;;;0.20;;
15246;SDS011;7726;48.820;9.248;2023-03-14T13:27:14;2.15;;;0.60;;
15246;SDS011;7726;48.820;9.248;2023-03-14T13:29:41;2.95;;;1.75;;
15246;SDS011;7726;48.820;9.248;2023-03-14T13:32:13;1.55;;;0.70;;
15246;SDS011;7726;48.820;9.248;2023-03-14T13:34:42;4.50;;;0.50;;
15246;SDS011;7726;48.820;9.248;2023-03-14T13:37:15;0.80;;;0.45;;
15246;SDS011;7726;48.820;9.248;2023-03-14T13:39:42;1.50;;;0.60;;
15246;SDS011;7726;48.820;9.248;2023-03-14T13:42:10;0.85;;;0.70;;
15246;SDS011;7726;48.820;9.248;2023-03-14T13:44:39;1.08;;;0.70;;
15246;SDS011;7726;48.820;9.248;2023-03-14T13:47:10;2.70;;;0.75;;
15246;SDS011;7726;48.820;9.248;2023-03-14T13:49:38;3.58;;;0.70;;
15246;SDS011;7726;48.820;9.248;2023-03-14T13:55:00;1.17;;;0.90;;
15246;SDS011;7726;48.820;9.248;2023-03-14T13:57:28;1.52;;;0.60;;
15246;SDS011;7726;48.820;9.248;2023-03-14T14:00:17;0.75;;;0.52;;
15246;SDS011;7726;48.820;9.248;2023-03-14T14:02:44;0.55;;;0.50;;
15246;SDS011;7726;48.820;9.248;2023-03-14T14:05:11;1.13;;;0.68;;
15246;SDS011;7726;48.820;9.248;2023-03-14T14:07:39;1.77;;;0.57;;
15246;SDS011;7726;48.820;9.248;2023-03-14T14:10:10;0.43;;;0.40;;
15246;SDS011;7726;48.820;9.248;2023-03-14T14:12:39;3.22;;;0.68;;
15246;SDS011;7726;48.820;9.248;2023-03-14T14:15:10;3.38;;;0.60;;
15246;SDS011;7726;48.820;9.248;2023-03-14T14:17:38;1.85;;;0.50;;
15246;SDS011;7726;48.820;9.248;2023-03-14T14:20:07;1.25;;;0.50;;
15246;SDS011;7726;48.820;9.248;2023-03-14T14:22:35;5.88;;;0.82;;
15246;SDS011;7726;48.820;9.248;2023-03-14T14:25:03;3.53;;;0.60;;
15246;SDS011;7726;48.820;9.248;2023-03-14T14:27:35;1.13;;;0.43;;
15246;SDS011;7726;48.820;9.248;2023-03-14T14:30:04;2.08;;;0.60;;
15246;SDS011;7726;48.820;9.248;2023-03-14T14:32:35;0.80;;;0.60;;
15246;SDS011;7726;48.820;9.248;2023-03-14T14:35:03;2.57;;;0.80;;
15246;SDS011;7726;48.820;9.248;2023-03-14T14:37:31;1.58;;;0.57;;
15246;SDS011;7726;48.820;9.248;2023-03-14T14:40:00;0.70;;;0.50;;
15246;SDS011;7726;48.820;9.248;2023-03-14T14:42:29;0.57;;;0.47;;
15246;SDS011;7726;48.820;9.248;2023-03-14T14:44:58;3.37;;;0.60;;
15246;SDS011;7726;48.820;9.248;2023-03-14T14:47:26;1.67;;;0.60;;
15246;SDS011;7726;48.820;9.248;2023-03-14T14:49:54;2.53;;;0.87;;
15246;SDS011;7726;48.820;9.248;2023-03-14T14:52:30;1.90;;;0.80;;
15246;SDS011;7726;48.820;9.248;2023-03-14T14:54:58;3.50;;;0.97;;
15246;SDS011;7726;48.820;9.248;2023-03-14T14:57:26;1.17;;;0.83;;
15246;SDS011;7726;48.820;9.248;2023-03-14T14:59:55;2.27;;;0.77;;
15246;SDS011;7726;48.820;9.248;2023-03-14T15:02:27;1.25;;;0.73;;
15246;SDS011;7726;48.820;9.248;2023-03-14T15:04:55;3.83;;;0.80;;
15246;SDS011;7726;48.820;9.248;2023-03-14T15:07:22;1.70;;;1.17;;
15246;SDS011;7726;48.820;9.248;2023-03-14T15:09:49;3.73;;;0.87;;
15246;SDS011;7726;48.820;9.248;2023-03-14T15:12:17;2.83;;;1.07;;
15246;SDS011;7726;48.820;9.248;2023-03-14T15:14:45;3.77;;;0.80;;
15246;SDS011;7726;48.820;9.248;2023-03-14T15:17:12;1.97;;;0.70;;
15246;SDS011;7726;48.820;9.248;2023-03-14T15:19:41;1.00;;;0.70;;